createdAt,value
2019-02-14T00:00:00.618Z,75.44
2019-02-14T00:02:27.582Z,75.24
2019-02-14T00:04:55.487Z,74.32
2019-02-14T00:07:22.245Z,74.27
2019-02-14T00:09:51.637Z,73.96
2019-02-14T00:12:18.437Z,74.31
2019-02-14T00:14:45.514Z,74.54
2019-02-14T00:17:12.217Z,74.33
2019-02-14T00:19:39.297Z,75.06
2019-02-14T00:22:06.456Z,75.43
2019-02-14T00:24:33.271Z,75.42
2019-02-14T00:27:00.010Z,75.04
2019-02-14T00:29:30.259Z,75.18
2019-02-14T00:31:56.963Z,74.94
2019-02-14T00:34:26.712Z,74.43
2019-02-14T00:36:54.159Z,75.12
2019-02-14T00:39:21.313Z,75.06
2019-02-14T00:41:48.168Z,75.08
2019-02-14T00:44:14.859Z,74.89
2019-02-14T00:46:43.462Z,75.09
2019-02-14T00:49:10.151Z,74.30
2019-02-14T00:51:36.883Z,74.35
2019-02-14T00:54:03.951Z,73.69
2019-02-14T00:56:30.783Z,73.71
2019-02-14T00:58:58.461Z,73.63
2019-02-14T01:01:25.173Z,74.78
2019-02-14T01:03:51.952Z,74.21
2019-02-14T01:06:18.695Z,73.95
2019-02-14T01:08:45.533Z,75.29
2019-02-14T01:11:12.279Z,76.52
2019-02-14T01:13:39.056Z,76.94
2019-02-14T01:16:05.909Z,76.37
2019-02-14T01:18:33.027Z,76.37
2019-02-14T01:20:59.831Z,75.90
2019-02-14T01:23:26.661Z,75.23
2019-02-14T01:25:54.903Z,74.84
2019-02-14T01:28:21.709Z,74.68
2019-02-14T01:30:48.565Z,74.90
2019-02-14T01:33:15.403Z,74.23
2019-02-14T01:35:42.484Z,73.98
2019-02-14T01:38:09.214Z,74.00
2019-02-14T01:40:35.940Z,73.92
2019-02-14T01:43:02.679Z,74.26
2019-02-14T01:45:29.406Z,73.94
2019-02-14T01:47:56.276Z,74.36
2019-02-14T01:50:23.421Z,74.65
2019-02-14T01:52:50.160Z,74.57
2019-02-14T01:55:17.041Z,75.23
2019-02-14T01:57:43.775Z,75.31
2019-02-14T02:00:13.427Z,74.76
2019-02-14T02:02:40.266Z,74.80
2019-02-14T02:05:06.994Z,74.77
2019-02-14T02:07:33.797Z,74.20
2019-02-14T02:10:00.613Z,75.59
2019-02-14T02:12:28.096Z,75.79
2019-02-14T02:14:54.814Z,75.73
2019-02-14T02:17:23.195Z,75.24
2019-02-14T02:19:50.240Z,74.88
2019-02-14T02:22:17.304Z,76.22
2019-02-14T02:24:44.069Z,76.44
2019-02-14T02:27:10.822Z,76.98
2019-02-14T02:29:37.649Z,77.16
2019-02-14T02:32:04.392Z,76.81
2019-02-14T02:34:34.050Z,76.86
2019-02-14T02:37:00.805Z,76.27
2019-02-14T02:39:27.554Z,76.01
2019-02-14T02:41:54.283Z,76.36
2019-02-14T02:44:21.024Z,76.43
2019-02-14T02:46:48.176Z,75.92
2019-02-14T02:49:15.032Z,76.17
2019-02-14T02:51:45.505Z,75.92
2019-02-14T02:54:12.230Z,75.13
2019-02-14T02:56:39.406Z,75.28
2019-02-14T02:59:06.237Z,74.90
2019-02-14T03:01:32.954Z,74.78
2019-02-14T03:03:59.658Z,75.01
2019-02-14T03:06:26.360Z,74.78
2019-02-14T03:08:55.738Z,74.24
2019-02-14T03:11:22.436Z,74.48
2019-02-14T03:13:49.188Z,73.83
2019-02-14T03:16:16.250Z,74.17
2019-02-14T03:18:44.290Z,75.43
2019-02-14T03:21:11.014Z,76.64
2019-02-14T03:23:38.108Z,75.94
2019-02-14T03:26:04.958Z,76.57
2019-02-14T03:28:31.732Z,76.39
2019-02-14T03:30:58.870Z,76.04
2019-02-14T03:33:25.938Z,75.73
2019-02-14T03:35:52.640Z,75.88
2019-02-14T03:38:19.391Z,75.63
2019-02-14T03:40:48.698Z,75.68
2019-02-14T03:43:15.437Z,74.97
2019-02-14T03:45:42.144Z,74.83
2019-02-14T03:48:08.880Z,74.65
2019-02-14T03:50:35.634Z,75.32
2019-02-14T03:53:02.385Z,75.96
2019-02-14T03:55:29.304Z,75.74
2019-02-14T03:57:56.090Z,74.91
2019-02-14T04:00:23.968Z,75.31
2019-02-14T04:02:50.808Z,75.04
2019-02-14T04:05:17.930Z,74.86
2019-02-14T04:07:44.698Z,74.22
2019-02-14T04:10:14.232Z,73.86
2019-02-14T04:12:41.298Z,73.74
2019-02-14T04:15:10.936Z,73.32
2019-02-14T04:17:37.776Z,73.58
2019-02-14T04:20:05.614Z,73.55
2019-02-14T04:22:32.338Z,73.89
2019-02-14T04:24:59.140Z,73.88
2019-02-14T04:27:25.945Z,73.77
2019-02-14T04:29:54.744Z,74.27
2019-02-14T04:32:21.717Z,74.44
2019-02-14T04:34:48.639Z,74.92
2019-02-14T04:37:15.392Z,74.90
2019-02-14T04:39:42.421Z,74.50
2019-02-14T04:42:09.241Z,74.64
2019-02-14T04:44:36.070Z,74.27
2019-02-14T04:47:04.030Z,74.24
2019-02-14T04:49:30.914Z,74.82
2019-02-14T04:52:02.294Z,74.75
2019-02-14T04:54:29.198Z,74.40
2019-02-14T04:56:56.321Z,74.18
2019-02-14T04:59:23.068Z,74.00
2019-02-14T05:01:50.132Z,74.10
2019-02-14T05:04:16.988Z,73.79
2019-02-14T05:06:44.475Z,74.00
2019-02-14T05:09:11.413Z,74.00
2019-02-14T05:11:38.269Z,74.16
2019-02-14T05:14:10.115Z,74.76
2019-02-14T05:16:36.958Z,74.73
2019-02-14T05:19:03.945Z,75.89
2019-02-14T05:21:30.654Z,75.99
2019-02-14T05:23:57.696Z,76.01
2019-02-14T05:26:24.794Z,76.93
2019-02-14T05:28:51.897Z,75.76
2019-02-14T05:31:18.787Z,75.40
2019-02-14T05:33:48.635Z,75.20
2019-02-14T05:36:17.629Z,74.47
2019-02-14T05:38:44.588Z,74.79
2019-02-14T05:41:11.474Z,74.78
2019-02-14T05:43:38.240Z,74.60
2019-02-14T05:46:05.367Z,73.80
2019-02-14T05:48:32.258Z,73.67
2019-02-14T05:50:59.014Z,73.64
2019-02-14T05:53:25.773Z,73.48
2019-02-14T05:55:52.532Z,74.01
2019-02-14T05:58:19.374Z,73.85
2019-02-14T06:00:46.412Z,74.10
2019-02-14T06:03:13.248Z,74.02
2019-02-14T06:05:39.970Z,74.20
2019-02-14T06:08:06.882Z,74.11
2019-02-14T06:10:33.600Z,74.11
2019-02-14T06:13:00.303Z,73.87
2019-02-14T06:15:27.255Z,73.84
2019-02-14T06:17:53.991Z,73.37
2019-02-14T06:20:22.854Z,73.58
2019-02-14T06:22:49.816Z,73.71
2019-02-14T06:25:16.699Z,73.88
2019-02-14T06:27:43.618Z,74.07
2019-02-14T06:30:11.611Z,73.90
2019-02-14T06:32:38.768Z,73.44
2019-02-14T06:35:06.683Z,73.41
2019-02-14T06:37:33.636Z,73.53
2019-02-14T06:40:01.153Z,73.49
2019-02-14T06:42:28.567Z,73.60
2019-02-14T06:44:58.188Z,73.14
2019-02-14T06:47:25.063Z,72.89
2019-02-14T06:49:52.111Z,73.01
2019-02-14T06:52:18.904Z,72.72
2019-02-14T06:54:45.642Z,72.70
2019-02-14T06:57:12.527Z,72.92
2019-02-14T06:59:39.622Z,72.87
2019-02-14T07:02:06.725Z,73.60
2019-02-14T07:04:33.677Z,72.98
2019-02-14T07:07:01.047Z,72.82
2019-02-14T07:09:28.957Z,72.27
2019-02-14T07:11:55.815Z,72.10
2019-02-14T07:14:23.279Z,72.72
2019-02-14T07:16:49.967Z,72.40
2019-02-14T07:19:16.715Z,72.00
2019-02-14T07:21:44.682Z,71.62
2019-02-14T07:24:11.555Z,72.23
2019-02-14T07:26:38.552Z,72.49
2019-02-14T07:29:05.405Z,72.52
2019-02-14T07:31:32.239Z,72.70
2019-02-14T07:33:59.070Z,72.89
2019-02-14T07:36:26.180Z,72.72
2019-02-14T07:38:58.278Z,72.53
2019-02-14T07:41:26.453Z,72.43
2019-02-14T07:43:53.387Z,72.70
2019-02-14T07:46:22.724Z,72.81
2019-02-14T07:48:48.963Z,73.30
2019-02-14T07:51:16.175Z,72.77
2019-02-14T07:53:43.013Z,72.67
2019-02-14T07:56:09.784Z,72.68
2019-02-14T07:58:36.695Z,72.59
2019-02-14T08:01:03.536Z,72.00
2019-02-14T08:03:30.378Z,72.17
2019-02-14T08:05:57.153Z,72.59
2019-02-14T08:08:23.900Z,72.37
2019-02-14T08:10:52.581Z,72.41
2019-02-14T08:13:19.337Z,72.56
2019-02-14T08:15:49.113Z,72.21
2019-02-14T08:18:18.503Z,72.21
2019-02-14T08:20:45.286Z,71.96
2019-02-14T08:23:12.191Z,72.85
2019-02-14T08:25:39.127Z,72.64
2019-02-14T08:28:06.070Z,72.80
2019-02-14T08:30:33.083Z,71.78
2019-02-14T08:33:00.142Z,71.94
2019-02-14T08:35:27.209Z,72.14
2019-02-14T08:37:54.141Z,72.19
2019-02-14T08:40:23.729Z,72.04
2019-02-14T08:42:50.471Z,72.15
2019-02-14T08:45:17.963Z,71.78
2019-02-14T08:47:45.031Z,71.22
2019-02-14T08:50:11.792Z,70.92
2019-02-14T08:52:39.195Z,70.09
2019-02-14T08:55:06.017Z,69.85
2019-02-14T08:57:32.869Z,70.25
2019-02-14T08:59:59.656Z,70.68
2019-02-14T09:02:26.408Z,70.76
2019-02-14T09:04:53.206Z,70.39
2019-02-14T09:07:20.158Z,69.92
2019-02-14T09:09:47.184Z,69.62
2019-02-14T09:12:15.271Z,69.60
2019-02-14T09:14:42.311Z,69.29
2019-02-14T09:17:12.973Z,69.08
2019-02-14T09:19:42.219Z,68.88
2019-02-14T09:22:09.599Z,68.80
2019-02-14T09:24:36.402Z,68.55
2019-02-14T09:27:03.277Z,68.05
2019-02-14T09:29:30.094Z,67.49
2019-02-14T09:31:57.382Z,67.14
2019-02-14T09:34:24.139Z,66.84
2019-02-14T09:36:50.873Z,66.59
2019-02-14T09:39:17.599Z,66.31
2019-02-14T09:41:44.268Z,66.27
2019-02-14T09:44:11.469Z,66.37
2019-02-14T09:46:38.324Z,66.07
2019-02-14T09:49:05.237Z,65.98
2019-02-14T09:51:32.306Z,65.56
2019-02-14T09:54:01.403Z,65.23
2019-02-14T09:56:28.328Z,65.23
2019-02-14T09:58:55.104Z,64.86
2019-02-14T10:01:22.436Z,64.38
2019-02-14T10:03:49.585Z,64.78
2019-02-14T10:06:19.427Z,64.01
2019-02-14T10:08:49.035Z,63.82
2019-02-14T10:11:18.114Z,63.24
2019-02-14T10:13:46.036Z,63.27
2019-02-14T10:16:12.900Z,63.27
2019-02-14T10:18:39.672Z,63.28
2019-02-14T10:21:10.433Z,63.28
2019-02-14T10:23:37.403Z,63.21
2019-02-14T10:26:04.158Z,62.93
2019-02-14T10:28:31.177Z,62.44
2019-02-14T10:30:59.624Z,62.44
2019-02-14T10:33:27.883Z,61.71
2019-02-14T10:35:56.594Z,62.43
2019-02-14T10:38:23.529Z,62.43
2019-02-14T10:40:50.800Z,61.32
2019-02-14T10:43:17.618Z,61.53
2019-02-14T10:45:44.810Z,61.53
2019-02-14T10:48:11.826Z,61.37
2019-02-14T10:50:38.970Z,61.13
2019-02-14T10:53:05.778Z,60.64
2019-02-14T10:55:32.524Z,60.64
2019-02-14T10:57:59.388Z,60.13
2019-02-14T11:00:26.530Z,59.49
2019-02-14T11:02:53.278Z,59.49
2019-02-14T11:05:20.523Z,59.37
2019-02-14T11:07:47.271Z,60.00
2019-02-14T11:10:15.316Z,59.23
2019-02-14T11:12:42.395Z,58.80
2019-02-14T11:15:10.281Z,58.91
2019-02-14T11:17:39.190Z,57.12
2019-02-14T11:20:07.954Z,57.12
2019-02-14T11:22:34.666Z,58.39
2019-02-14T11:25:01.592Z,58.17
2019-02-14T11:27:28.486Z,57.67
2019-02-14T11:29:55.308Z,57.34
2019-02-14T11:32:22.036Z,57.37
2019-02-14T11:34:49.016Z,56.62
2019-02-14T11:37:16.721Z,55.82
2019-02-14T11:39:45.056Z,56.00
2019-02-14T11:42:12.468Z,55.21
2019-02-14T11:44:42.699Z,55.64
2019-02-14T11:47:09.461Z,55.32
2019-02-14T11:49:37.220Z,54.83
2019-02-14T11:52:08.343Z,55.07
2019-02-14T11:54:35.118Z,54.82
2019-02-14T11:57:01.943Z,55.13
2019-02-14T11:59:28.965Z,53.83
2019-02-14T12:01:55.805Z,53.74
2019-02-14T12:04:22.647Z,53.71
2019-02-14T12:06:49.825Z,53.22
2019-02-14T12:09:16.631Z,52.31
2019-02-14T12:11:43.652Z,52.29
2019-02-14T12:14:10.352Z,52.39
2019-02-14T12:16:39.229Z,52.11
2019-02-14T12:19:06.446Z,51.79
2019-02-14T12:21:33.288Z,51.28
2019-02-14T12:24:00.464Z,50.90
2019-02-14T12:26:27.876Z,50.82
2019-02-14T12:28:54.862Z,50.05
2019-02-14T12:31:21.708Z,49.89
2019-02-14T12:33:48.602Z,50.27
2019-02-14T12:36:18.101Z,49.49
2019-02-14T12:38:44.823Z,49.23
2019-02-14T12:41:11.790Z,48.36
2019-02-14T12:43:38.746Z,47.28
2019-02-14T12:46:05.732Z,47.42
2019-02-14T12:48:32.866Z,47.79
2019-02-14T12:50:59.865Z,46.82
2019-02-14T12:53:28.726Z,46.89
2019-02-14T12:55:55.482Z,46.26
2019-02-14T12:58:22.857Z,46.54
2019-02-14T13:00:49.744Z,46.43
2019-02-14T13:03:16.580Z,45.76
2019-02-14T13:05:46.261Z,44.66
2019-02-14T13:08:13.081Z,44.17
2019-02-14T13:10:40.325Z,44.32
2019-02-14T13:13:07.197Z,43.88
2019-02-14T13:15:34.282Z,44.23
2019-02-14T13:18:01.046Z,44.00
2019-02-14T13:20:27.806Z,42.89
2019-02-14T13:22:54.653Z,42.04
2019-02-14T13:25:23.386Z,42.45
2019-02-14T13:27:50.195Z,41.59
2019-02-14T13:30:19.220Z,41.66
2019-02-14T13:32:45.958Z,41.20
2019-02-14T13:35:12.674Z,40.96
2019-02-14T13:37:40.407Z,40.30
2019-02-14T13:40:07.611Z,40.89
2019-02-14T13:42:34.389Z,39.84
2019-02-14T13:45:01.244Z,38.85
2019-02-14T13:47:28.050Z,40.48
2019-02-14T13:49:54.791Z,39.51
2019-02-14T13:52:21.498Z,39.03
2019-02-14T13:54:48.245Z,38.70
2019-02-14T13:57:15.299Z,37.77
2019-02-14T13:59:42.067Z,38.03
2019-02-14T14:02:09.363Z,36.71
2019-02-14T14:04:36.079Z,36.33
2019-02-14T14:07:03.206Z,36.51
2019-02-14T14:09:38.247Z,36.33
2019-02-14T14:11:58.599Z,37.31
2019-02-14T14:14:25.677Z,38.13
2019-02-14T14:16:52.409Z,38.34
2019-02-14T14:19:19.304Z,38.66
2019-02-14T14:21:46.060Z,37.68
2019-02-14T14:24:12.971Z,37.79
2019-02-14T14:26:39.861Z,38.13
2019-02-14T14:29:09.404Z,36.79
2019-02-14T14:31:36.263Z,37.71
2019-02-14T14:34:03.125Z,37.96
2019-02-14T14:36:30.627Z,37.83
2019-02-14T14:38:57.812Z,38.33
2019-02-14T14:41:27.431Z,39.42
2019-02-14T14:44:02.492Z,38.90
2019-02-14T14:46:33.570Z,38.98
2019-02-14T14:49:00.532Z,38.70
2019-02-14T14:51:27.254Z,38.71
2019-02-14T14:53:57.317Z,39.50
2019-02-14T14:56:24.130Z,40.29
2019-02-14T14:58:51.073Z,40.77
2019-02-14T15:01:17.943Z,40.30
2019-02-14T15:03:45.194Z,41.19
2019-02-14T15:06:15.008Z,41.39
2019-02-14T15:08:42.001Z,42.73
2019-02-14T15:11:09.031Z,43.42
2019-02-14T15:13:39.980Z,43.79
2019-02-14T15:16:08.150Z,44.11
2019-02-14T15:18:34.873Z,43.65
2019-02-14T15:21:01.755Z,43.01
2019-02-14T15:23:29.259Z,42.41
2019-02-14T15:25:56.226Z,43.43
2019-02-14T15:28:25.281Z,43.37
2019-02-14T15:30:52.107Z,42.96
2019-02-14T15:33:19.022Z,43.41
2019-02-14T15:35:45.899Z,44.11
2019-02-14T15:38:13.078Z,44.56
2019-02-14T15:40:39.847Z,44.94
2019-02-14T15:43:06.689Z,45.41
2019-02-14T15:45:35.011Z,45.20
2019-02-14T15:48:02.111Z,45.05
2019-02-14T15:50:29.998Z,45.37
2019-02-14T15:52:57.995Z,45.76
2019-02-14T15:55:25.106Z,45.95
2019-02-14T15:57:52.193Z,45.51
2019-02-14T16:00:18.968Z,45.73
2019-02-14T16:02:47.773Z,46.38
2019-02-14T16:05:16.526Z,46.03
2019-02-14T16:07:43.451Z,46.44
2019-02-14T16:10:18.257Z,46.27
2019-02-14T16:12:41.091Z,46.85
2019-02-14T16:15:09.104Z,46.73
2019-02-14T16:17:37.458Z,47.01
2019-02-14T16:20:04.631Z,47.66
2019-02-14T16:22:34.580Z,48.03
2019-02-14T16:25:02.669Z,48.36
2019-02-14T16:27:30.189Z,48.31
2019-02-14T16:29:56.928Z,48.84
2019-02-14T16:32:24.411Z,49.00
2019-02-14T16:34:51.387Z,48.91
2019-02-14T16:37:18.411Z,48.98
2019-02-14T16:39:51.548Z,48.75
2019-02-14T16:42:14.159Z,48.99
2019-02-14T16:44:41.362Z,49.12
2019-02-14T16:47:08.488Z,49.28
2019-02-14T16:49:35.257Z,49.39
2019-02-14T16:52:02.059Z,49.28
2019-02-14T16:54:28.951Z,49.57
2019-02-14T16:56:55.831Z,49.56
2019-02-14T16:59:22.867Z,49.58
2019-02-14T17:01:49.683Z,49.86
2019-02-14T17:04:18.289Z,49.78
2019-02-14T17:06:45.220Z,49.89
2019-02-14T17:09:12.443Z,49.81
2019-02-14T17:11:39.323Z,50.06
2019-02-14T17:14:06.305Z,50.33
2019-02-14T17:16:33.393Z,50.86
2019-02-14T17:19:00.275Z,50.87
2019-02-14T17:21:27.072Z,51.07
2019-02-14T17:23:54.007Z,51.03
2019-02-14T17:26:21.087Z,51.10
2019-02-14T17:28:47.936Z,51.31
2019-02-14T17:31:14.761Z,51.52
2019-02-14T17:33:41.483Z,51.92
2019-02-14T17:36:08.297Z,51.94
2019-02-14T17:38:35.192Z,52.00
2019-02-14T17:41:02.135Z,52.19
2019-02-14T17:43:29.466Z,52.56
2019-02-14T17:45:56.204Z,52.74
2019-02-14T17:48:23.100Z,53.17
2019-02-14T17:50:50.203Z,53.34
2019-02-14T17:53:17.407Z,53.44
2019-02-14T17:55:44.179Z,53.57
2019-02-14T17:58:10.941Z,53.48
2019-02-14T18:00:39.653Z,53.60
2019-02-14T18:03:06.574Z,53.80
2019-02-14T18:05:33.499Z,53.99
2019-02-14T18:08:00.681Z,54.62
2019-02-14T18:10:27.642Z,54.94
2019-02-14T18:12:55.786Z,55.24
2019-02-14T18:15:23.115Z,55.47
2019-02-14T18:17:49.873Z,55.42
2019-02-14T18:20:16.606Z,55.65
2019-02-14T18:22:43.363Z,55.70
2019-02-14T18:25:10.906Z,55.83
2019-02-14T18:27:38.044Z,56.00
2019-02-14T18:30:05.788Z,56.00
2019-02-14T18:32:32.578Z,56.38
2019-02-14T18:34:59.354Z,56.60
2019-02-14T18:37:26.152Z,57.17
2019-02-14T18:39:55.852Z,57.21
2019-02-14T18:42:22.613Z,56.83
2019-02-14T18:44:49.318Z,56.98
2019-02-14T18:47:16.390Z,56.93
2019-02-14T18:49:43.401Z,57.32
2019-02-14T18:52:10.324Z,57.22
2019-02-14T18:54:37.171Z,57.28
2019-02-14T18:57:04.258Z,57.80
2019-02-14T18:59:31.093Z,58.05
2019-02-14T19:01:57.886Z,58.05
2019-02-14T19:04:24.834Z,58.05
2019-02-14T19:06:52.010Z,57.99
2019-02-14T19:09:19.363Z,58.13
2019-02-14T19:11:49.434Z,58.42
2019-02-14T19:14:16.564Z,58.68
2019-02-14T19:16:43.459Z,59.12
2019-02-14T19:19:10.278Z,59.16
2019-02-14T19:21:37.074Z,58.88
2019-02-14T19:24:04.021Z,59.25
2019-02-14T19:26:30.734Z,58.92
2019-02-14T19:28:57.691Z,58.77
2019-02-14T19:31:24.532Z,58.33
2019-02-14T19:33:51.453Z,58.39
2019-02-14T19:36:18.249Z,58.92
2019-02-14T19:38:45.087Z,58.83
2019-02-14T19:41:11.952Z,58.51
2019-02-14T19:43:38.752Z,58.41
2019-02-14T19:46:05.522Z,58.32
2019-02-14T19:48:32.458Z,58.44
2019-02-14T19:50:59.440Z,58.75
2019-02-14T19:53:26.190Z,58.81
2019-02-14T19:55:54.247Z,58.90
2019-02-14T19:58:21.054Z,58.47
2019-02-14T20:00:47.888Z,58.19
2019-02-14T20:03:14.665Z,57.88
2019-02-14T20:05:41.445Z,58.37
2019-02-14T20:08:10.165Z,58.73
2019-02-14T20:10:37.287Z,58.30
2019-02-14T20:13:04.030Z,58.07
2019-02-14T20:15:37.357Z,58.29
2019-02-14T20:18:01.916Z,57.93
2019-02-14T20:20:31.853Z,58.27
2019-02-14T20:22:58.633Z,58.86
2019-02-14T20:25:27.920Z,59.20
2019-02-14T20:27:55.331Z,59.22
2019-02-14T20:30:24.945Z,59.24
2019-02-14T20:32:52.377Z,59.59
2019-02-14T20:35:19.178Z,59.71
2019-02-14T20:37:46.199Z,59.82
2019-02-14T20:40:13.018Z,59.68
2019-02-14T20:42:40.075Z,59.53
2019-02-14T20:45:07.888Z,59.46
2019-02-14T20:47:34.758Z,59.54
2019-02-14T20:50:01.531Z,59.19
2019-02-14T20:52:28.341Z,59.54
2019-02-14T20:54:55.236Z,59.57
2019-02-14T20:57:22.074Z,59.99
2019-02-14T20:59:48.802Z,59.65
2019-02-14T21:02:17.656Z,59.64
2019-02-14T21:04:44.545Z,59.99
2019-02-14T21:07:11.317Z,59.71
2019-02-14T21:09:38.063Z,60.30
2019-02-14T21:12:04.829Z,60.08
2019-02-14T21:14:31.826Z,60.08
2019-02-14T21:16:58.585Z,60.64
2019-02-14T21:19:25.416Z,60.42
2019-02-14T21:21:52.160Z,60.94
2019-02-14T21:24:19.206Z,60.94
2019-02-14T21:26:46.470Z,60.76
2019-02-14T21:29:13.534Z,61.29
2019-02-14T21:31:40.279Z,61.29
2019-02-14T21:34:07.468Z,61.98
2019-02-14T21:36:34.696Z,61.60
2019-02-14T21:39:01.611Z,61.54
2019-02-14T21:41:30.556Z,61.54
2019-02-14T21:43:57.539Z,62.10
2019-02-14T21:46:24.289Z,62.19
2019-02-14T21:48:51.228Z,62.97
2019-02-14T21:51:18.415Z,62.97
2019-02-14T21:53:45.163Z,62.77
2019-02-14T21:56:12.114Z,62.96
2019-02-14T21:58:39.602Z,62.44
2019-02-14T22:01:06.690Z,62.44
2019-02-14T22:03:33.605Z,63.88
2019-02-14T22:06:00.904Z,64.10
2019-02-14T22:08:28.149Z,64.10
2019-02-14T22:10:55.111Z,63.94
2019-02-14T22:13:22.135Z,64.37
2019-02-14T22:15:48.972Z,64.37
2019-02-14T22:18:15.784Z,64.29
2019-02-14T22:20:44.541Z,64.44
2019-02-14T22:23:11.413Z,64.44
2019-02-14T22:25:41.281Z,64.36
2019-02-14T22:28:08.129Z,64.65
2019-02-14T22:30:34.957Z,64.26
2019-02-14T22:33:01.755Z,64.54
2019-02-14T22:35:28.959Z,64.34
2019-02-14T22:37:55.974Z,64.56
2019-02-14T22:40:22.691Z,63.99
2019-02-14T22:42:51.688Z,63.94
2019-02-14T22:45:18.464Z,64.04
2019-02-14T22:47:45.217Z,64.12
2019-02-14T22:50:11.952Z,64.40
2019-02-14T22:52:38.775Z,64.41
2019-02-14T22:55:06.371Z,63.82
2019-02-14T22:57:33.062Z,64.65
2019-02-14T22:59:59.781Z,64.34
2019-02-14T23:02:26.519Z,63.70
2019-02-14T23:04:53.263Z,64.10
2019-02-14T23:07:20.016Z,65.19
2019-02-14T23:09:46.717Z,65.19
2019-02-14T23:12:13.471Z,66.00
2019-02-14T23:14:40.371Z,66.98
2019-02-14T23:17:07.087Z,66.57
2019-02-14T23:19:33.830Z,67.15
2019-02-14T23:22:01.373Z,67.03
2019-02-14T23:24:28.169Z,66.92
2019-02-14T23:26:55.017Z,66.50
2019-02-14T23:29:21.795Z,67.07
2019-02-14T23:31:48.566Z,66.80
2019-02-14T23:34:15.299Z,67.42
2019-02-14T23:36:42.025Z,67.38
2019-02-14T23:39:08.848Z,66.82
2019-02-14T23:41:35.586Z,66.43
2019-02-14T23:44:02.432Z,67.01
2019-02-14T23:46:29.151Z,67.54
2019-02-14T23:48:55.886Z,67.60
2019-02-14T23:51:22.614Z,67.45
2019-02-14T23:53:52.249Z,67.18
2019-02-14T23:56:21.335Z,67.80
2019-02-14T23:58:48.235Z,67.82
